sensor_id;sensor_type;location;lat;lon;timestamp;pressure;altitude;pressure_sealevel;temperature;humidity
72370;BME280;60343;-32.030;115.880;2022-10-01T00:02:05;101876.19;;;21.01;47.45
72370;BME280;60343;-32.030;115.880;2022-10-01T00:04:40;101881.38;;;21.22;46.70
72370;BME280;60343;-32.030;115.880;2022-10-01T00:07:11;101881.19;;;21.55;45.98
72370;BME280;60343;-32.030;115.880;2022-10-01T00:09:42;101873.53;;;21.77;45.26
72370;BME280;60343;-32.030;115.880;2022-10-01T00:12:10;101872.25;;;22.11;45.34
72370;BME280;60343;-32.030;115.880;2022-10-01T00:14:38;101881.63;;;22.40;43.55
72370;BME280;60343;-32.030;115.880;2022-10-01T00:17:06;101872.69;;;22.76;42.71
72370;BME280;60343;-32.030;115.880;2022-10-01T00:19:34;101865.78;;;22.91;42.44
72370;BME280;60343;-32.030;115.880;2022-10-01T00:22:08;101870.53;;;23.14;41.79
72370;BME280;60343;-32.030;115.880;2022-10-01T00:24:36;101872.56;;;23.37;40.94
72370;BME280;60343;-32.030;115.880;2022-10-01T00:27:04;101876.81;;;23.51;40.98
72370;BME280;60343;-32.030;115.880;2022-10-01T00:29:33;101864.88;;;23.64;40.64
72370;BME280;60343;-32.030;115.880;2022-10-01T00:32:01;101869.78;;;23.73;42.20
72370;BME280;60343;-32.030;115.880;2022-10-01T00:34:31;101860.16;;;23.82;40.10
72370;BME280;60343;-32.030;115.880;2022-10-01T00:37:00;101859.53;;;23.80;40.07
72370;BME280;60343;-32.030;115.880;2022-10-01T00:39:34;101857.31;;;23.89;40.38
72370;BME280;60343;-32.030;115.880;2022-10-01T00:42:16;101849.25;;;24.06;39.90
72370;BME280;60343;-32.030;115.880;2022-10-01T00:44:45;101848.47;;;24.17;40.20
72370;BME280;60343;-32.030;115.880;2022-10-01T00:47:23;101854.78;;;24.29;39.04
72370;BME280;60343;-32.030;115.880;2022-10-01T00:49:54;101863.94;;;24.46;39.30
72370;BME280;60343;-32.030;115.880;2022-10-01T00:52:25;101848.91;;;24.60;39.39
72370;BME280;60343;-32.030;115.880;2022-10-01T00:55:04;101851.19;;;24.63;38.07
72370;BME280;60343;-32.030;115.880;2022-10-01T00:57:33;101854.13;;;24.97;37.79
72370;BME280;60343;-32.030;115.880;2022-10-01T01:00:05;101847.81;;;24.85;36.95
72370;BME280;60343;-32.030;115.880;2022-10-01T01:02:33;101841.03;;;24.99;36.75
72370;BME280;60343;-32.030;115.880;2022-10-01T01:05:01;101833.31;;;25.24;36.40
72370;BME280;60343;-32.030;115.880;2022-10-01T01:07:30;101830.16;;;25.60;36.25
72370;BME280;60343;-32.030;115.880;2022-10-01T01:10:10;101825.03;;;25.64;35.49
72370;BME280;60343;-32.030;115.880;2022-10-01T01:12:56;101827.94;;;26.08;35.45
72370;BME280;60343;-32.030;115.880;2022-10-01T01:15:33;101821.13;;;26.43;34.07
72370;BME280;60343;-32.030;115.880;2022-10-01T01:18:07;101832.94;;;26.44;34.02
72370;BME280;60343;-32.030;115.880;2022-10-01T01:20:55;101825.97;;;26.20;34.28
72370;BME280;60343;-32.030;115.880;2022-10-01T01:26:39;101815.97;;;26.69;34.09
72370;BME280;60343;-32.030;115.880;2022-10-01T01:29:22;101805.78;;;26.47;33.64
72370;BME280;60343;-32.030;115.880;2022-10-01T01:31:56;101799.28;;;26.54;33.30
72370;BME280;60343;-32.030;115.880;2022-10-01T01:34:29;101796.50;;;26.70;33.08
72370;BME280;60343;-32.030;115.880;2022-10-01T01:37:01;101786.09;;;26.94;32.97
72370;BME280;60343;-32.030;115.880;2022-10-01T01:39:32;101788.09;;;27.25;32.87
72370;BME280;60343;-32.030;115.880;2022-10-01T01:42:08;101776.16;;;27.47;31.96
72370;BME280;60343;-32.030;115.880;2022-10-01T01:44:45;101778.06;;;27.41;32.14
72370;BME280;60343;-32.030;115.880;2022-10-01T01:47:14;101765.44;;;27.45;31.74
72370;BME280;60343;-32.030;115.880;2022-10-01T01:49:45;101761.88;;;27.45;31.85
72370;BME280;60343;-32.030;115.880;2022-10-01T01:52:14;101769.59;;;27.48;31.93
72370;BME280;60343;-32.030;115.880;2022-10-01T01:54:43;101764.28;;;27.68;32.06
72370;BME280;60343;-32.030;115.880;2022-10-01T01:57:13;101760.97;;;27.66;31.18
72370;BME280;60343;-32.030;115.880;2022-10-01T01:59:48;101765.03;;;27.58;32.65
72370;BME280;60343;-32.030;115.880;2022-10-01T02:02:19;101752.31;;;27.84;31.58
72370;BME280;60343;-32.030;115.880;2022-10-01T02:04:52;101760.56;;;28.21;31.03
72370;BME280;60343;-32.030;115.880;2022-10-01T02:10:24;101746.09;;;28.46;30.62
72370;BME280;60343;-32.030;115.880;2022-10-01T02:13:08;101741.19;;;28.63;30.24
72370;BME280;60343;-32.030;115.880;2022-10-01T02:15:51;101738.31;;;28.33;31.37
72370;BME280;60343;-32.030;115.880;2022-10-01T02:18:26;101741.69;;;28.03;31.17
72370;BME280;60343;-32.030;115.880;2022-10-01T02:21:00;101738.84;;;27.88;30.42
72370;BME280;60343;-32.030;115.880;2022-10-01T02:23:35;101729.63;;;28.09;30.11
72370;BME280;60343;-32.030;115.880;2022-10-01T02:26:09;101726.84;;;28.51;27.21
72370;BME280;60343;-32.030;115.880;2022-10-01T02:28:40;101720.94;;;28.94;27.49
72370;BME280;60343;-32.030;115.880;2022-10-01T02:31:15;101719.34;;;29.34;26.29
72370;BME280;60343;-32.030;115.880;2022-10-01T02:33:46;101718.47;;;29.13;27.13
72370;BME280;60343;-32.030;115.880;2022-10-01T02:36:17;101711.81;;;28.89;27.36
72370;BME280;60343;-32.030;115.880;2022-10-01T02:38:47;101704.97;;;29.22;26.20
72370;BME280;60343;-32.030;115.880;2022-10-01T02:41:18;101709.41;;;29.43;26.76
72370;BME280;60343;-32.030;115.880;2022-10-01T02:43:50;101705.81;;;29.63;25.89
72370;BME280;60343;-32.030;115.880;2022-10-01T02:46:29;101703.88;;;29.43;25.65
72370;BME280;60343;-32.030;115.880;2022-10-01T02:48:59;101689.53;;;29.26;26.46
72370;BME280;60343;-32.030;115.880;2022-10-01T02:51:35;101692.81;;;29.23;26.71
72370;BME280;60343;-32.030;115.880;2022-10-01T02:54:10;101690.06;;;29.28;26.76
72370;BME280;60343;-32.030;115.880;2022-10-01T02:56:40;101677.13;;;29.49;26.27
72370;BME280;60343;-32.030;115.880;2022-10-01T02:59:08;101686.22;;;29.69;27.30
72370;BME280;60343;-32.030;115.880;2022-10-01T03:01:43;101677.69;;;29.40;26.31
72370;BME280;60343;-32.030;115.880;2022-10-01T03:04:12;101674.09;;;29.35;27.45
72370;BME280;60343;-32.030;115.880;2022-10-01T03:06:40;101671.34;;;29.55;27.71
72370;BME280;60343;-32.030;115.880;2022-10-01T03:09:08;101673.53;;;29.63;26.52
72370;BME280;60343;-32.030;115.880;2022-10-01T03:11:36;101663.63;;;29.42;26.12
72370;BME280;60343;-32.030;115.880;2022-10-01T03:14:04;101655.03;;;29.18;28.25
72370;BME280;60343;-32.030;115.880;2022-10-01T03:16:32;101649.81;;;28.91;28.13
72370;BME280;60343;-32.030;115.880;2022-10-01T03:19:09;101656.13;;;28.72;27.95
72370;BME280;60343;-32.030;115.880;2022-10-01T03:21:37;101656.06;;;28.62;27.99
72370;BME280;60343;-32.030;115.880;2022-10-01T03:24:05;101649.72;;;28.66;28.54
72370;BME280;60343;-32.030;115.880;2022-10-01T03:26:33;101645.38;;;28.75;29.10
72370;BME280;60343;-32.030;115.880;2022-10-01T03:29:01;101644.81;;;28.83;28.61
72370;BME280;60343;-32.030;115.880;2022-10-01T03:31:30;101638.22;;;29.10;29.10
72370;BME280;60343;-32.030;115.880;2022-10-01T03:33:58;101636.28;;;29.25;27.83
72370;BME280;60343;-32.030;115.880;2022-10-01T03:36:46;101629.94;;;29.45;28.01
72370;BME280;60343;-32.030;115.880;2022-10-01T03:39:28;101621.38;;;29.62;27.23
72370;BME280;60343;-32.030;115.880;2022-10-01T03:41:56;101625.44;;;29.84;26.82
72370;BME280;60343;-32.030;115.880;2022-10-01T03:44:24;101624.94;;;29.77;26.46
72370;BME280;60343;-32.030;115.880;2022-10-01T03:46:52;101621.88;;;29.79;28.14
72370;BME280;60343;-32.030;115.880;2022-10-01T03:49:21;101610.59;;;29.70;26.16
72370;BME280;60343;-32.030;115.880;2022-10-01T03:51:55;101606.97;;;29.80;26.79
72370;BME280;60343;-32.030;115.880;2022-10-01T03:54:23;101608.34;;;29.82;27.40
72370;BME280;60343;-32.030;115.880;2022-10-01T03:56:51;101611.28;;;30.11;28.40
72370;BME280;60343;-32.030;115.880;2022-10-01T03:59:19;101596.13;;;30.04;27.95
72370;BME280;60343;-32.030;115.880;2022-10-01T04:07:28;101599.63;;;29.40;29.75
72370;BME280;60343;-32.030;115.880;2022-10-01T04:09:56;101596.56;;;29.47;29.00
72370;BME280;60343;-32.030;115.880;2022-10-01T04:12:24;101588.00;;;29.38;29.45
72370;BME280;60343;-32.030;115.880;2022-10-01T04:14:52;101582.50;;;29.38;29.34
72370;BME280;60343;-32.030;115.880;2022-10-01T04:17:20;101578.94;;;29.32;28.57
72370;BME280;60343;-32.030;115.880;2022-10-01T04:19:48;101580.56;;;29.23;29.03
72370;BME280;60343;-32.030;115.880;2022-10-01T04:22:16;101577.53;;;29.25;27.91
72370;BME280;60343;-32.030;115.880;2022-10-01T04:24:53;101576.13;;;29.48;26.82
72370;BME280;60343;-32.030;115.880;2022-10-01T04:27:21;101571.94;;;29.65;26.36
72370;BME280;60343;-32.030;115.880;2022-10-01T04:29:49;101565.31;;;29.71;27.70
72370;BME280;60343;-32.030;115.880;2022-10-01T04:32:17;101557.03;;;29.71;28.11
72370;BME280;60343;-32.030;115.880;2022-10-01T04:34:45;101554.22;;;29.81;26.57
72370;BME280;60343;-32.030;115.880;2022-10-01T04:37:13;101556.75;;;29.63;27.99
72370;BME280;60343;-32.030;115.880;2022-10-01T04:39:41;101549.84;;;29.75;27.67
72370;BME280;60343;-32.030;115.880;2022-10-01T04:42:16;101541.50;;;29.91;26.17
72370;BME280;60343;-32.030;115.880;2022-10-01T04:44:44;101542.69;;;29.69;27.90
72370;BME280;60343;-32.030;115.880;2022-10-01T04:47:12;101540.03;;;30.08;26.98
72370;BME280;60343;-32.030;115.880;2022-10-01T04:49:42;101533.00;;;30.31;27.01
72370;BME280;60343;-32.030;115.880;2022-10-01T04:52:10;101537.59;;;30.02;28.01
72370;BME280;60343;-32.030;115.880;2022-10-01T04:54:38;101525.72;;;30.01;27.59
72370;BME280;60343;-32.030;115.880;2022-10-01T04:57:06;101525.19;;;29.94;27.21
72370;BME280;60343;-32.030;115.880;2022-10-01T04:59:40;101527.72;;;29.91;27.50
72370;BME280;60343;-32.030;115.880;2022-10-01T05:02:08;101512.81;;;29.92;26.42
72370;BME280;60343;-32.030;115.880;2022-10-01T05:04:37;101516.56;;;30.11;27.02
72370;BME280;60343;-32.030;115.880;2022-10-01T05:07:05;101511.59;;;30.13;26.87
72370;BME280;60343;-32.030;115.880;2022-10-01T05:09:33;101518.69;;;30.19;26.93
72370;BME280;60343;-32.030;115.880;2022-10-01T05:12:01;101515.22;;;29.98;25.61
72370;BME280;60343;-32.030;115.880;2022-10-01T05:14:29;101515.66;;;29.61;26.44
72370;BME280;60343;-32.030;115.880;2022-10-01T05:17:08;101510.81;;;30.02;26.44
72370;BME280;60343;-32.030;115.880;2022-10-01T05:19:36;101505.38;;;30.31;26.39
72370;BME280;60343;-32.030;115.880;2022-10-01T05:22:04;101502.53;;;30.46;24.13
72370;BME280;60343;-32.030;115.880;2022-10-01T05:24:32;101498.75;;;30.66;23.90
72370;BME280;60343;-32.030;115.880;2022-10-01T05:27:00;101483.69;;;30.82;23.87
72370;BME280;60343;-32.030;115.880;2022-10-01T05:29:28;101484.25;;;31.13;24.04
72370;BME280;60343;-32.030;115.880;2022-10-01T05:31:58;101479.22;;;31.15;22.95
72370;BME280;60343;-32.030;115.880;2022-10-01T05:34:32;101480.88;;;31.16;23.37
72370;BME280;60343;-32.030;115.880;2022-10-01T05:37:00;101476.63;;;31.24;22.18
72370;BME280;60343;-32.030;115.880;2022-10-01T05:39:28;101476.97;;;31.65;21.94
72370;BME280;60343;-32.030;115.880;2022-10-01T05:41:56;101468.13;;;31.39;21.78
72370;BME280;60343;-32.030;115.880;2022-10-01T05:44:25;101472.75;;;31.48;22.43
72370;BME280;60343;-32.030;115.880;2022-10-01T05:46:53;101465.19;;;31.54;22.15
72370;BME280;60343;-32.030;115.880;2022-10-01T05:49:32;101466.78;;;31.84;22.33
72370;BME280;60343;-32.030;115.880;2022-10-01T05:52:09;101458.75;;;31.64;21.73
72370;BME280;60343;-32.030;115.880;2022-10-01T05:54:38;101454.84;;;31.41;22.21
72370;BME280;60343;-32.030;115.880;2022-10-01T05:57:09;101457.13;;;31.34;22.63
72370;BME280;60343;-32.030;115.880;2022-10-01T05:59:40;101451.94;;;31.08;22.36
72370;BME280;60343;-32.030;115.880;2022-10-01T06:02:38;101453.81;;;31.13;22.79
72370;BME280;60343;-32.030;115.880;2022-10-01T06:05:28;101445.31;;;31.04;22.30
72370;BME280;60343;-32.030;115.880;2022-10-01T06:08:02;101440.41;;;30.96;22.34
72370;BME280;60343;-32.030;115.880;2022-10-01T06:10:36;101437.09;;;30.94;22.07
72370;BME280;60343;-32.030;115.880;2022-10-01T06:13:07;101448.66;;;31.25;22.15
72370;BME280;60343;-32.030;115.880;2022-10-01T06:15:39;101442.13;;;31.40;21.85
72370;BME280;60343;-32.030;115.880;2022-10-01T06:18:11;101436.31;;;31.84;21.91
72370;BME280;60343;-32.030;115.880;2022-10-01T06:21:02;101436.06;;;31.99;22.06
72370;BME280;60343;-32.030;115.880;2022-10-01T06:23:33;101445.16;;;32.23;21.04
72370;BME280;60343;-32.030;115.880;2022-10-01T06:26:13;101431.41;;;31.94;21.43
72370;BME280;60343;-32.030;115.880;2022-10-01T06:28:41;101434.66;;;31.83;20.88
72370;BME280;60343;-32.030;115.880;2022-10-01T06:31:09;101444.00;;;31.68;20.88
72370;BME280;60343;-32.030;115.880;2022-10-01T06:33:37;101449.19;;;31.51;21.58
72370;BME280;60343;-32.030;115.880;2022-10-01T06:36:14;101449.34;;;31.83;20.97
72370;BME280;60343;-32.030;115.880;2022-10-01T06:38:42;101435.69;;;31.87;21.07
72370;BME280;60343;-32.030;115.880;2022-10-01T06:41:11;101439.66;;;32.00;20.34
72370;BME280;60343;-32.030;115.880;2022-10-01T06:43:39;101443.19;;;32.24;20.74
72370;BME280;60343;-32.030;115.880;2022-10-01T06:46:07;101447.22;;;32.31;20.49
72370;BME280;60343;-32.030;115.880;2022-10-01T06:48:35;101434.66;;;32.20;19.59
72370;BME280;60343;-32.030;115.880;2022-10-01T06:51:04;101442.22;;;32.33;19.01
72370;BME280;60343;-32.030;115.880;2022-10-01T06:53:37;101446.59;;;32.34;19.14
72370;BME280;60343;-32.030;115.880;2022-10-01T06:56:06;101438.19;;;31.88;19.05
72370;BME280;60343;-32.030;115.880;2022-10-01T06:58:35;101452.00;;;31.46;18.89
72370;BME280;60343;-32.030;115.880;2022-10-01T07:01:03;101450.94;;;31.23;18.70
72370;BME280;60343;-32.030;115.880;2022-10-01T07:03:31;101442.81;;;31.50;18.88
72370;BME280;60343;-32.030;115.880;2022-10-01T07:06:03;101441.09;;;31.78;18.47
72370;BME280;60343;-32.030;115.880;2022-10-01T07:08:37;101447.41;;;31.60;17.78
72370;BME280;60343;-32.030;115.880;2022-10-01T07:11:05;101455.44;;;31.62;17.53
72370;BME280;60343;-32.030;115.880;2022-10-01T07:13:33;101436.13;;;31.33;17.57
72370;BME280;60343;-32.030;115.880;2022-10-01T07:16:03;101445.22;;;31.38;17.85
72370;BME280;60343;-32.030;115.880;2022-10-01T07:18:31;101450.69;;;31.43;17.67
72370;BME280;60343;-32.030;115.880;2022-10-01T07:20:59;101455.97;;;31.64;16.82
72370;BME280;60343;-32.030;115.880;2022-10-01T07:23:27;101449.50;;;31.26;16.68
72370;BME280;60343;-32.030;115.880;2022-10-01T07:26:03;101455.97;;;31.40;16.55
72370;BME280;60343;-32.030;115.880;2022-10-01T07:28:32;101442.72;;;31.37;16.26
72370;BME280;60343;-32.030;115.880;2022-10-01T07:31:02;101443.94;;;31.92;16.04
72370;BME280;60343;-32.030;115.880;2022-10-01T07:33:31;101435.69;;;32.06;15.36
72370;BME280;60343;-32.030;115.880;2022-10-01T07:36:01;101438.75;;;31.85;15.03
72370;BME280;60343;-32.030;115.880;2022-10-01T07:38:29;101442.47;;;32.18;14.51
72370;BME280;60343;-32.030;115.880;2022-10-01T07:41:06;101443.41;;;32.27;13.94
72370;BME280;60343;-32.030;115.880;2022-10-01T07:43:34;101444.06;;;32.01;14.34
72370;BME280;60343;-32.030;115.880;2022-10-01T07:46:02;101447.97;;;32.00;14.56
72370;BME280;60343;-32.030;115.880;2022-10-01T07:48:30;101447.75;;;31.59;14.72
72370;BME280;60343;-32.030;115.880;2022-10-01T07:50:58;101454.75;;;31.27;15.25
72370;BME280;60343;-32.030;115.880;2022-10-01T07:53:27;101452.00;;;31.46;15.94
72370;BME280;60343;-32.030;115.880;2022-10-01T07:55:55;101454.69;;;31.32;15.92
72370;BME280;60343;-32.030;115.880;2022-10-01T07:58:31;101449.03;;;31.42;15.83
72370;BME280;60343;-32.030;115.880;2022-10-01T08:01:03;101447.72;;;31.35;16.79
72370;BME280;60343;-32.030;115.880;2022-10-01T08:03:31;101454.06;;;31.35;16.63
72370;BME280;60343;-32.030;115.880;2022-10-01T08:05:59;101447.44;;;31.13;16.49
72370;BME280;60343;-32.030;115.880;2022-10-01T08:08:27;101450.78;;;30.81;17.03
72370;BME280;60343;-32.030;115.880;2022-10-01T08:11:00;101470.38;;;30.55;17.35
72370;BME280;60343;-32.030;115.880;2022-10-01T08:13:34;101460.38;;;30.59;17.78
72370;BME280;60343;-32.030;115.880;2022-10-01T08:16:03;101467.38;;;30.52;17.77
72370;BME280;60343;-32.030;115.880;2022-10-01T08:18:32;101462.78;;;30.37;17.37
72370;BME280;60343;-32.030;115.880;2022-10-01T08:21:01;101460.47;;;30.49;17.43
72370;BME280;60343;-32.030;115.880;2022-10-01T08:23:29;101463.69;;;30.27;17.90
72370;BME280;60343;-32.030;115.880;2022-10-01T08:26:00;101459.47;;;29.96;18.79
72370;BME280;60343;-32.030;115.880;2022-10-01T08:28:39;101469.56;;;29.67;19.53
72370;BME280;60343;-32.030;115.880;2022-10-01T08:31:08;101476.00;;;29.47;20.10
72370;BME280;60343;-32.030;115.880;2022-10-01T08:33:41;101476.31;;;29.20;20.50
72370;BME280;60343;-32.030;115.880;2022-10-01T08:36:11;101480.19;;;29.19;21.08
72370;BME280;60343;-32.030;115.880;2022-10-01T08:38:39;101478.53;;;29.18;20.49
72370;BME280;60343;-32.030;115.880;2022-10-01T08:41:19;101467.84;;;28.91;20.69
72370;BME280;60343;-32.030;115.880;2022-10-01T08:43:58;101476.09;;;28.26;21.57
72370;BME280;60343;-32.030;115.880;2022-10-01T08:46:30;101481.81;;;28.04;22.29
72370;BME280;60343;-32.030;115.880;2022-10-01T08:49:06;101481.78;;;27.94;23.00
72370;BME280;60343;-32.030;115.880;2022-10-01T08:51:41;101481.41;;;27.60;23.94
72370;BME280;60343;-32.030;115.880;2022-10-01T08:54:24;101484.69;;;27.57;23.93
72370;BME280;60343;-32.030;115.880;2022-10-01T08:56:53;101492.78;;;27.31;24.11
72370;BME280;60343;-32.030;115.880;2022-10-01T08:59:37;101496.34;;;27.32;24.06
72370;BME280;60343;-32.030;115.880;2022-10-01T09:02:17;101496.56;;;27.15;23.60
72370;BME280;60343;-32.030;115.880;2022-10-01T09:04:46;101505.53;;;27.01;23.81
72370;BME280;60343;-32.030;115.880;2022-10-01T09:07:24;101506.16;;;26.76;25.04
72370;BME280;60343;-32.030;115.880;2022-10-01T09:10:01;101511.97;;;26.53;25.79
72370;BME280;60343;-32.030;115.880;2022-10-01T09:12:42;101512.19;;;26.19;26.27
72370;BME280;60343;-32.030;115.880;2022-10-01T09:15:27;101509.66;;;25.91;25.84
72370;BME280;60343;-32.030;115.880;2022-10-01T09:18:12;101510.06;;;25.78;25.42
72370;BME280;60343;-32.030;115.880;2022-10-01T09:20:46;101531.22;;;25.60;25.57
72370;BME280;60343;-32.030;115.880;2022-10-01T09:23:18;101523.97;;;25.33;26.71
72370;BME280;60343;-32.030;115.880;2022-10-01T09:25:49;101521.31;;;25.38;26.59
72370;BME280;60343;-32.030;115.880;2022-10-01T09:28:20;101531.13;;;25.34;26.02
72370;BME280;60343;-32.030;115.880;2022-10-01T09:30:57;101527.16;;;25.63;25.75
72370;BME280;60343;-32.030;115.880;2022-10-01T09:33:31;101530.09;;;25.78;26.46
72370;BME280;60343;-32.030;115.880;2022-10-01T09:36:06;101522.75;;;25.84;26.70
72370;BME280;60343;-32.030;115.880;2022-10-01T09:38:40;101525.75;;;25.60;28.13
72370;BME280;60343;-32.030;115.880;2022-10-01T09:41:10;101542.47;;;25.04;29.14
72370;BME280;60343;-32.030;115.880;2022-10-01T09:43:39;101538.44;;;24.78;29.58
72370;BME280;60343;-32.030;115.880;2022-10-01T09:46:15;101540.34;;;24.44;29.69
72370;BME280;60343;-32.030;115.880;2022-10-01T09:48:48;101548.88;;;24.19;30.48
72370;BME280;60343;-32.030;115.880;2022-10-01T09:51:22;101544.06;;;23.98;30.92
72370;BME280;60343;-32.030;115.880;2022-10-01T09:54:08;101551.59;;;23.79;31.45
72370;BME280;60343;-32.030;115.880;2022-10-01T09:56:43;101552.47;;;23.68;31.59
72370;BME280;60343;-32.030;115.880;2022-10-01T09:59:17;101558.06;;;23.50;32.08
72370;BME280;60343;-32.030;115.880;2022-10-01T10:01:54;101569.34;;;23.42;32.51
72370;BME280;60343;-32.030;115.880;2022-10-01T10:04:24;101571.00;;;23.31;32.70
72370;BME280;60343;-32.030;115.880;2022-10-01T10:06:58;101573.38;;;23.16;32.61
72370;BME280;60343;-32.030;115.880;2022-10-01T10:09:29;101582.31;;;23.23;32.93
72370;BME280;60343;-32.030;115.880;2022-10-01T10:11:58;101593.09;;;23.18;33.01
72370;BME280;60343;-32.030;115.880;2022-10-01T10:14:29;101587.84;;;23.05;33.29
72370;BME280;60343;-32.030;115.880;2022-10-01T10:17:05;101592.84;;;22.96;33.73
72370;BME280;60343;-32.030;115.880;2022-10-01T10:19:37;101599.97;;;22.97;34.27
72370;BME280;60343;-32.030;115.880;2022-10-01T10:22:18;101610.94;;;22.79;34.84
72370;BME280;60343;-32.030;115.880;2022-10-01T10:24:47;101607.34;;;22.67;35.61
72370;BME280;60343;-32.030;115.880;2022-10-01T10:27:23;101607.16;;;22.50;36.20
72370;BME280;60343;-32.030;115.880;2022-10-01T10:30:02;101607.25;;;22.44;35.94
72370;BME280;60343;-32.030;115.880;2022-10-01T10:32:36;101617.78;;;22.40;35.42
72370;BME280;60343;-32.030;115.880;2022-10-01T10:35:09;101613.38;;;22.39;35.54
72370;BME280;60343;-32.030;115.880;2022-10-01T10:37:43;101626.66;;;22.36;35.68
72370;BME280;60343;-32.030;115.880;2022-10-01T10:40:17;101624.72;;;22.24;36.25
72370;BME280;60343;-32.030;115.880;2022-10-01T10:42:48;101633.59;;;22.20;36.77
72370;BME280;60343;-32.030;115.880;2022-10-01T10:45:18;101636.84;;;22.10;36.82
72370;BME280;60343;-32.030;115.880;2022-10-01T10:47:54;101636.09;;;22.03;37.18
72370;BME280;60343;-32.030;115.880;2022-10-01T10:50:29;101643.75;;;21.95;37.55
72370;BME280;60343;-32.030;115.880;2022-10-01T10:52:58;101645.06;;;21.86;37.61
72370;BME280;60343;-32.030;115.880;2022-10-01T10:55:28;101650.53;;;21.67;38.30
72370;BME280;60343;-32.030;115.880;2022-10-01T10:58:07;101649.75;;;21.60;38.50
72370;BME280;60343;-32.030;115.880;2022-10-01T11:00:42;101656.91;;;21.55;38.68
72370;BME280;60343;-32.030;115.880;2022-10-01T11:03:21;101654.66;;;21.52;39.05
72370;BME280;60343;-32.030;115.880;2022-10-01T11:05:50;101657.81;;;21.49;39.05
72370;BME280;60343;-32.030;115.880;2022-10-01T11:08:22;101657.81;;;21.49;39.07
72370;BME280;60343;-32.030;115.880;2022-10-01T11:10:56;101652.16;;;21.50;38.83
72370;BME280;60343;-32.030;115.880;2022-10-01T11:13:52;101663.53;;;21.40;39.29
72370;BME280;60343;-32.030;115.880;2022-10-01T11:16:42;101674.28;;;21.35;39.03
72370;BME280;60343;-32.030;115.880;2022-10-01T11:19:31;101674.78;;;21.26;39.05
72370;BME280;60343;-32.030;115.880;2022-10-01T11:22:15;101677.72;;;21.24;39.17
72370;BME280;60343;-32.030;115.880;2022-10-01T11:24:59;101688.06;;;21.16;39.28
72370;BME280;60343;-32.030;115.880;2022-10-01T11:27:39;101695.81;;;21.12;39.29
72370;BME280;60343;-32.030;115.880;2022-10-01T11:30:15;101685.34;;;21.09;38.91
72370;BME280;60343;-32.030;115.880;2022-10-01T11:32:48;101694.78;;;21.07;39.00
72370;BME280;60343;-32.030;115.880;2022-10-01T11:35:41;101692.72;;;21.02;39.48
72370;BME280;60343;-32.030;115.880;2022-10-01T11:38:37;101693.25;;;20.86;40.03
72370;BME280;60343;-32.030;115.880;2022-10-01T11:44:10;101702.47;;;20.78;39.88
72370;BME280;60343;-32.030;115.880;2022-10-01T11:46:50;101704.81;;;20.75;40.02
72370;BME280;60343;-32.030;115.880;2022-10-01T11:49:31;101708.19;;;20.70;39.91
72370;BME280;60343;-32.030;115.880;2022-10-01T11:52:17;101718.91;;;20.65;39.83
72370;BME280;60343;-32.030;115.880;2022-10-01T11:54:55;101717.41;;;20.63;39.94
72370;BME280;60343;-32.030;115.880;2022-10-01T11:57:26;101725.84;;;20.54;39.73
72370;BME280;60343;-32.030;115.880;2022-10-01T11:59:58;101723.97;;;20.55;39.73
72370;BME280;60343;-32.030;115.880;2022-10-01T12:02:32;101726.88;;;20.53;39.54
72370;BME280;60343;-32.030;115.880;2022-10-01T12:05:07;101736.34;;;20.44;39.81
72370;BME280;60343;-32.030;115.880;2022-10-01T12:07:48;101737.56;;;20.48;39.63
72370;BME280;60343;-32.030;115.880;2022-10-01T12:10:30;101741.78;;;20.44;40.01
72370;BME280;60343;-32.030;115.880;2022-10-01T12:13:05;101734.50;;;20.32;40.26
72370;BME280;60343;-32.030;115.880;2022-10-01T12:15:42;101751.00;;;20.24;40.06
72370;BME280;60343;-32.030;115.880;2022-10-01T12:18:21;101747.91;;;20.13;40.42
72370;BME280;60343;-32.030;115.880;2022-10-01T12:20:54;101746.47;;;20.04;40.75
72370;BME280;60343;-32.030;115.880;2022-10-01T12:23:34;101745.81;;;20.02;40.95
72370;BME280;60343;-32.030;115.880;2022-10-01T12:26:09;101758.16;;;19.92;41.32
72370;BME280;60343;-32.030;115.880;2022-10-01T12:28:46;101755.88;;;19.89;41.64
72370;BME280;60343;-32.030;115.880;2022-10-01T12:31:20;101748.78;;;19.94;41.85
72370;BME280;60343;-32.030;115.880;2022-10-01T12:34:03;101768.63;;;19.88;41.67
72370;BME280;60343;-32.030;115.880;2022-10-01T12:36:44;101760.69;;;19.87;41.91
72370;BME280;60343;-32.030;115.880;2022-10-01T12:39:34;101772.19;;;19.89;41.90
72370;BME280;60343;-32.030;115.880;2022-10-01T12:42:19;101769.69;;;19.81;42.13
72370;BME280;60343;-32.030;115.880;2022-10-01T12:45:01;101779.50;;;19.75;42.56
72370;BME280;60343;-32.030;115.880;2022-10-01T12:47:38;101784.94;;;19.68;42.45
72370;BME280;60343;-32.030;115.880;2022-10-01T12:50:18;101787.44;;;19.63;42.66
72370;BME280;60343;-32.030;115.880;2022-10-01T12:52:54;101795.19;;;19.66;42.58
72370;BME280;60343;-32.030;115.880;2022-10-01T12:55:48;101791.81;;;19.58;42.74
72370;BME280;60343;-32.030;115.880;2022-10-01T12:58:45;101801.03;;;19.50;42.98
72370;BME280;60343;-32.030;115.880;2022-10-01T13:01:24;101800.38;;;19.48;43.26
72370;BME280;60343;-32.030;115.880;2022-10-01T13:04:06;101807.03;;;19.39;43.34
72370;BME280;60343;-32.030;115.880;2022-10-01T13:06:47;101812.03;;;19.36;43.86